Time;durP1;ratioP1;P1;durP2;ratioP2;P2;SDS_P1;SDS_P2;PMS_P1;PMS_P2;Temp;Humidity;BMP_temperature;BMP_pressure;BME280_temperature;BME280_humidity;BME280_pressure;Samples;Min_cycle;Max_cycle;Signal;HPM_P1;HPM_P2
2023/12/25 00:00:35;;;;;;;4.07;3.42;;;;;;;11.68;100.00;100471.59;5075298;28;20043;-86
2023/12/25 00:03:01;;;;;;;5.60;3.63;;;;;;;11.67;100.00;100470.72;5074379;28;20044;-86
2023/12/25 00:05:26;;;;;;;4.15;3.40;;;;;;;11.68;100.00;100471.59;5074924;28;20047;-85
2023/12/25 00:07:52;;;;;;;5.05;3.38;;;;;;;11.64;100.00;100462.78;5074976;28;20480;-85
2023/12/25 00:10:19;;;;;;;5.18;3.55;;;;;;;11.57;100.00;100461.03;5092978;28;20480;-85
2023/12/25 00:12:45;;;;;;;5.93;3.53;;;;;;;11.60;100.00;100471.59;5092894;28;20047;-85
2023/12/25 00:15:10;;;;;;;4.60;3.85;;;;;;;11.61;100.00;100465.44;5057911;28;20063;-86
2023/12/25 00:17:36;;;;;;;7.10;3.70;;;;;;;11.61;100.00;100468.09;5096184;28;20047;-86
2023/12/25 00:20:03;;;;;;;5.00;3.83;;;;;;;11.61;100.00;100465.44;5096676;28;20444;-86
2023/12/25 00:22:29;;;;;;;4.50;3.85;;;;;;;11.58;100.00;100462.78;5078712;28;20036;-87
2023/12/25 00:24:54;;;;;;;3.78;3.17;;;;;;;11.58;100.00;100453.97;5061328;28;20166;-86
2023/12/25 00:27:20;;;;;;;5.03;3.55;;;;;;;11.51;100.00;100438.06;5078323;28;20032;-87
2023/12/25 00:29:46;;;;;;;5.00;3.53;;;;;;;11.57;100.00;100452.22;5061750;28;20032;-86
2023/12/25 00:32:11;;;;;;;4.80;3.50;;;;;;;11.46;100.00;100425.72;5078360;28;20118;-87
2023/12/25 00:34:36;;;;;;;4.80;3.28;;;;;;;11.58;100.00;100451.31;5078327;28;20033;-86
2023/12/25 00:37:02;;;;;;;4.60;3.00;;;;;;;11.57;100.00;100447.81;5096340;28;20115;-86
2023/12/25 00:39:27;;;;;;;5.32;3.45;;;;;;;11.47;100.00;100440.72;5096259;28;20054;-86
2023/12/25 00:41:53;;;;;;;5.20;3.28;;;;;;;11.57;100.00;100445.16;5078164;28;20089;-87
2023/12/25 00:44:18;;;;;;;4.70;3.40;;;;;;;11.59;100.00;100446.03;5077836;28;20078;-86
2023/12/25 00:46:43;;;;;;;4.30;3.20;;;;;;;11.53;100.00;100425.75;5078045;28;20032;-87
2023/12/25 00:49:10;;;;;;;5.32;3.20;;;;;;;11.46;100.00;100421.31;5061219;28;20077;-86
2023/12/25 00:51:35;;;;;;;4.07;3.28;;;;;;;11.62;100.00;100451.31;5096049;28;20032;-86
2023/12/25 00:54:00;;;;;;;4.53;3.30;;;;;;;11.59;100.00;100461.91;5077788;28;20173;-86
2023/12/25 00:56:26;;;;;;;5.15;3.63;;;;;;;11.65;100.00;100469.84;5077910;28;20040;-85
2023/12/25 00:58:51;;;;;;;5.10;3.33;;;;;;;11.62;100.00;100468.97;5077682;28;20133;-85
2023/12/25 01:01:16;;;;;;;4.80;3.80;;;;;;;11.64;100.00;100472.47;5077485;28;20038;-85
2023/12/25 01:03:42;;;;;;;4.22;3.40;;;;;;;11.50;100.00;100440.72;5077117;28;20055;-86
2023/12/25 01:06:07;;;;;;;6.40;3.63;;;;;;;11.66;100.00;100476.91;5060930;28;20036;-85
2023/12/25 01:08:32;;;;;;;5.82;3.75;;;;;;;11.56;100.00;100466.31;5060967;28;20036;-86
2023/12/25 01:11:01;;;;;;;5.03;4.10;;;;;;;11.66;100.00;100482.19;5077617;28;20064;-85
2023/12/25 01:13:27;;;;;;;5.95;3.78;;;;;;;11.67;100.00;100480.44;5095645;28;20036;-85
2023/12/25 01:15:52;;;;;;;4.90;3.80;;;;;;;11.66;100.00;100484.84;5095269;28;20450;-85
2023/12/25 01:18:17;;;;;;;7.80;4.03;;;;;;;11.67;100.00;100478.66;5077510;28;20089;-85
2023/12/25 01:20:43;;;;;;;4.30;3.50;;;;;;;11.66;100.00;100478.69;5095720;28;20032;-86
2023/12/25 01:23:09;;;;;;;6.60;3.95;;;;;;;11.67;100.00;100480.44;5095159;28;20032;-86
2023/12/25 01:25:34;;;;;;;7.82;4.00;;;;;;;11.65;100.00;100482.19;5095393;28;20036;-86
2023/12/25 01:27:59;;;;;;;4.85;3.40;;;;;;;11.67;100.00;100489.25;5094537;28;20384;-85
2023/12/25 01:30:25;;;;;;;4.97;3.90;;;;;;;11.64;100.00;100480.41;5060445;28;20040;-85
2023/12/25 01:32:50;;;;;;;6.68;3.88;;;;;;;11.67;100.00;100491.03;5077158;28;20097;-85
2023/12/25 01:35:15;;;;;;;5.95;3.97;;;;;;;11.60;100.00;100481.31;5095199;28;20036;-85
2023/12/25 01:37:41;;;;;;;5.57;4.10;;;;;;;11.64;100.00;100489.25;5077197;28;20067;-85
2023/12/25 01:40:07;;;;;;;4.57;3.90;;;;;;;11.64;100.00;100491.00;5076959;28;20399;-85
2023/12/25 01:42:32;;;;;;;5.03;4.13;;;;;;;11.71;100.00;100508.66;5094635;28;20354;-86
2023/12/25 01:44:58;;;;;;;5.28;3.92;;;;;;;11.73;100.00;100496.31;5094965;28;20035;-85
2023/12/25 01:47:23;;;;;;;5.32;3.80;;;;;;;11.71;100.00;100496.31;5094887;28;20028;-85
2023/12/25 01:49:49;;;;;;;5.10;4.05;;;;;;;11.68;100.00;100491.00;5076971;28;20036;-84
2023/12/25 01:52:15;;;;;;;7.82;4.47;;;;;;;11.71;100.00;100495.44;5077094;28;20036;-85
2023/12/25 01:54:41;;;;;;;6.50;4.70;;;;;;;11.63;100.00;100489.25;5076833;28;20043;-85
2023/12/25 01:57:06;;;;;;;5.55;4.32;;;;;;;11.65;100.00;100468.94;5094571;28;20114;-86
2023/12/25 01:59:31;;;;;;;8.10;5.35;;;;;;;11.75;100.00;100506.03;5094528;28;20035;-85
2023/12/25 02:01:57;;;;;;;7.75;5.30;;;;;;;11.66;100.00;100491.91;5094340;28;20384;-85
2023/12/25 02:04:24;;;;;;;7.07;5.53;;;;;;;11.72;100.00;100505.13;5094794;28;20044;-84
2023/12/25 02:06:50;;;;;;;8.10;5.82;;;;;;;11.66;100.00;100483.97;5094584;28;20034;-84
2023/12/25 02:09:16;;;;;;;6.55;5.60;;;;;;;11.73;100.00;100493.66;5094652;28;20031;-84
2023/12/25 02:11:41;;;;;;;7.85;5.85;;;;;;;11.69;100.00;100500.75;5094604;28;20043;-84
2023/12/25 02:14:08;;;;;;;8.90;6.15;;;;;;;11.72;100.00;100503.38;5094294;28;20038;-84
2023/12/25 02:16:35;;;;;;;7.35;5.65;;;;;;;11.70;100.00;100496.31;5076832;28;20024;-85
2023/12/25 02:19:01;;;;;;;5.82;5.22;;;;;;;11.66;100.00;100500.72;5094305;28;20036;-85
2023/12/25 02:21:27;;;;;;;8.10;5.18;;;;;;;11.77;100.00;100519.25;5076083;28;20040;-85
2023/12/25 02:23:59;;;;;;;8.07;6.03;;;;;;;11.77;100.00;100517.47;5093988;28;20111;-85
2023/12/25 02:26:25;;;;;;;6.32;5.32;;;;;;;11.78;100.00;100515.75;5094347;28;20476;-86
2023/12/25 02:28:50;;;;;;;6.63;5.93;;;;;;;11.81;100.00;100512.19;5094241;28;20059;-86
2023/12/25 02:31:17;;;;;;;7.80;5.28;;;;;;;11.84;100.00;100529.00;5076107;28;20466;-86
2023/12/25 02:33:42;;;;;;;7.45;6.07;;;;;;;11.86;100.00;100519.31;5093848;28;20468;-86
2023/12/25 02:36:08;;;;;;;8.52;6.20;;;;;;;11.81;100.00;100510.44;5075903;28;20040;-88
2023/12/25 02:38:33;;;;;;;8.48;6.35;;;;;;;11.88;100.00;100521.94;5075777;28;20470;-86
2023/12/25 02:40:58;;;;;;;8.32;5.25;;;;;;;11.90;100.00;100534.28;5092907;28;20427;-86
2023/12/25 02:43:24;;;;;;;7.35;5.55;;;;;;;11.89;100.00;100535.19;5075717;28;20109;-85
2023/12/25 02:45:49;;;;;;;8.60;5.45;;;;;;;11.91;100.00;100538.72;5093628;28;20042;-85
2023/12/25 02:48:15;;;;;;;8.15;5.53;;;;;;;11.89;100.00;100535.19;5075475;28;20031;-86
2023/12/25 02:50:40;;;;;;;7.18;4.68;;;;;;;11.91;100.00;100540.50;5075745;28;20472;-86
2023/12/25 02:53:05;;;;;;;7.75;5.30;;;;;;;11.94;100.00;100540.47;5075572;28;20036;-86
2023/12/25 02:55:31;;;;;;;8.43;5.38;;;;;;;11.88;100.00;100532.53;5093460;28;20028;-86
2023/12/25 02:57:56;;;;;;;6.88;5.25;;;;;;;11.87;100.00;100525.50;5093632;28;20036;-86
2023/12/25 03:00:22;;;;;;;7.25;5.18;;;;;;;11.96;100.00;100546.66;5075692;28;20036;-85
2023/12/25 03:02:47;;;;;;;8.82;5.50;;;;;;;11.88;100.00;100541.38;5093364;28;20043;-85
2023/12/25 03:05:13;;;;;;;7.25;5.38;;;;;;;11.96;100.00;100552.84;5093637;28;20376;-86
2023/12/25 03:07:38;;;;;;;7.20;5.55;;;;;;;11.97;100.00;100545.78;5093234;28;20028;-86
2023/12/25 03:10:04;;;;;;;7.13;6.00;;;;;;;11.90;100.00;100533.41;5093248;28;20111;-85
2023/12/25 03:12:29;;;;;;;6.20;5.60;;;;;;;11.95;100.00;100545.78;5075381;28;20036;-86
2023/12/25 03:14:54;;;;;;;6.00;5.40;;;;;;;11.95;100.00;100535.19;5093491;28;20422;-85
2023/12/25 03:17:20;;;;;;;7.40;5.50;;;;;;;11.88;100.00;100530.78;5075425;28;20028;-86
2023/12/25 03:19:45;;;;;;;6.57;5.60;;;;;;;11.97;100.00;100545.78;5093400;28;20586;-86
2023/12/25 03:22:11;;;;;;;6.82;5.55;;;;;;;12.00;100.00;100537.84;5041900;28;20035;-86
2023/12/25 03:24:36;;;;;;;7.57;5.70;;;;;;;12.00;100.00;100535.19;5075127;28;20130;-86
2023/12/25 03:27:02;;;;;;;6.57;5.10;;;;;;;11.93;100.00;100529.00;5075312;28;20380;-85
2023/12/25 03:29:28;;;;;;;6.07;5.13;;;;;;;11.86;100.00;100529.91;5075410;28;20036;-85
2023/12/25 03:31:53;;;;;;;6.20;5.60;;;;;;;11.97;100.00;100551.94;5093629;28;20032;-85
2023/12/25 03:34:19;;;;;;;7.75;5.28;;;;;;;11.97;100.00;100556.38;5058423;28;20043;-85
2023/12/25 03:36:45;;;;;;;7.47;5.68;;;;;;;11.87;100.00;100536.06;5093196;28;20039;-85
2023/12/25 03:39:11;;;;;;;6.57;5.75;;;;;;;11.95;100.00;100561.69;5093189;28;20047;-85
2023/12/25 03:41:36;;;;;;;6.95;5.30;;;;;;;11.93;100.00;100554.59;5092937;28;20028;-85
2023/12/25 03:44:02;;;;;;;6.30;5.65;;;;;;;11.91;100.00;100553.72;5074959;28;20043;-85
2023/12/25 03:46:28;;;;;;;7.30;5.22;;;;;;;11.98;100.00;100566.06;5092865;28;20032;-85
2023/12/25 03:48:53;;;;;;;6.05;5.00;;;;;;;11.98;100.00;100563.44;5075246;28;20468;-86
2023/12/25 03:51:19;;;;;;;7.18;5.00;;;;;;;11.78;100.00;100515.75;5095004;28;20039;-85
2023/12/25 03:53:44;;;;;;;6.28;5.55;;;;;;;12.00;100.00;100559.91;5097339;28;20081;-86
2023/12/25 03:56:11;;;;;;;7.65;5.05;;;;;;;11.77;100.00;100541.31;5098265;28;20039;-85
2023/12/25 03:58:37;;;;;;;6.63;4.70;;;;;;;11.99;100.00;100570.47;5080337;28;20058;-86
2023/12/25 04:01:02;;;;;;;6.50;5.07;;;;;;;11.88;100.00;100559.00;5098778;28;20032;-85
2023/12/25 04:03:28;;;;;;;6.40;5.20;;;;;;;11.87;100.00;100557.25;5080017;28;20490;-85
2023/12/25 04:05:53;;;;;;;6.22;4.70;;;;;;;11.91;100.00;100575.78;5098289;28;20032;-85
2023/12/25 04:08:19;;;;;;;5.75;5.03;;;;;;;11.84;100.00;100560.78;5098296;28;20515;-86
2023/12/25 04:10:44;;;;;;;6.88;5.07;;;;;;;11.89;100.00;100574.88;5079679;28;20415;-86
2023/12/25 04:13:10;;;;;;;5.95;4.68;;;;;;;11.85;100.00;100561.66;5097912;28;20032;-85
2023/12/25 04:15:35;;;;;;;6.20;4.82;;;;;;;11.87;100.00;100562.56;5097835;28;20112;-85
2023/12/25 04:18:00;;;;;;;5.55;4.07;;;;;;;11.78;100.00;100540.44;5097788;28;20043;-85
2023/12/25 04:20:26;;;;;;;6.40;4.13;;;;;;;11.87;100.00;100551.97;5099107;28;20119;-85
2023/12/25 04:22:51;;;;;;;7.63;4.47;;;;;;;11.84;100.00;100546.66;5081215;28;20028;-85
2023/12/25 04:25:16;;;;;;;5.45;3.63;;;;;;;11.80;100.00;100529.84;5080916;28;20057;-85
2023/12/25 04:27:42;;;;;;;3.92;3.38;;;;;;;11.90;100.00;100539.59;5080832;28;20428;-86
2023/12/25 04:30:07;;;;;;;4.43;3.47;;;;;;;11.77;100.00;100520.13;5098578;28;20111;-85
2023/12/25 04:32:33;;;;;;;4.18;3.25;;;;;;;11.70;100.00;100509.56;5097987;28;20032;-85
2023/12/25 04:34:58;;;;;;;4.45;3.47;;;;;;;11.85;100.00;100529.88;5062505;28;20464;-85
2023/12/25 04:37:24;;;;;;;3.65;3.15;;;;;;;11.84;100.00;100525.47;5079535;28;20109;-87
2023/12/25 04:39:50;;;;;;;5.97;3.53;;;;;;;11.77;100.00;100524.53;5078620;28;20111;-85
2023/12/25 04:42:15;;;;;;;4.45;3.28;;;;;;;11.78;100.00;100529.84;5096450;28;20055;-84
2023/12/25 04:44:41;;;;;;;3.55;2.80;;;;;;;11.78;100.00;100528.97;5097012;28;20456;-85
2023/12/25 04:47:06;;;;;;;5.13;3.10;;;;;;;11.89;100.00;100540.47;5078352;28;20124;-85
2023/12/25 04:49:32;;;;;;;5.82;3.10;;;;;;;11.88;100.00;100537.84;5097615;28;20038;-85
2023/12/25 04:51:57;;;;;;;3.47;2.90;;;;;;;11.87;100.00;100530.78;5096895;28;20036;-85
2023/12/25 04:54:22;;;;;;;3.20;2.80;;;;;;;11.86;100.00;100524.59;5078840;28;20032;-85
2023/12/25 04:56:48;;;;;;;3.85;2.90;;;;;;;11.85;100.00;100525.47;5097419;28;20086;-85
2023/12/25 04:59:14;;;;;;;4.30;2.63;;;;;;;11.64;100.00;100486.59;5097839;28;20055;-85
2023/12/25 05:01:40;;;;;;;4.47;2.65;;;;;;;11.88;100.00;100520.19;5097227;28;20028;-85
2023/12/25 05:04:05;;;;;;;4.68;2.45;;;;;;;11.79;100.00;100506.91;5095444;28;20117;-85
2023/12/25 05:06:31;;;;;;;3.05;2.40;;;;;;;11.84;100.00;100522.84;5096314;28;20559;-84
2023/12/25 05:08:56;;;;;;;3.85;2.50;;;;;;;11.79;100.00;100502.50;5096255;28;20044;-86
2023/12/25 05:11:23;;;;;;;2.80;2.30;;;;;;;11.61;100.00;100472.50;5095875;28;20028;-85
2023/12/25 05:13:49;;;;;;;2.60;2.28;;;;;;;11.69;100.00;100499.84;5095954;28;20028;-85
2023/12/25 05:16:14;;;;;;;3.40;2.70;;;;;;;11.70;100.00;100522.78;5096124;28;20039;-85
2023/12/25 05:18:40;;;;;;;4.45;3.10;;;;;;;11.78;100.00;100536.91;5077941;28;20068;-85
2023/12/25 05:21:08;;;;;;;4.32;3.00;;;;;;;11.76;100.00;100528.97;5078017;28;20395;-86
2023/12/25 05:23:34;;;;;;;4.18;3.42;;;;;;;11.74;100.00;100522.78;5095561;28;20028;-85
2023/12/25 05:25:59;;;;;;;4.35;3.60;;;;;;;11.72;100.00;100513.94;5095552;28;20139;-85
2023/12/25 05:28:24;;;;;;;5.57;3.60;;;;;;;11.76;100.00;100520.13;5077113;28;20093;-85
2023/12/25 05:30:50;;;;;;;5.18;3.47;;;;;;;11.58;100.00;100486.59;5077591;28;20036;-85
2023/12/25 05:33:15;;;;;;;4.47;3.60;;;;;;;11.72;100.00;100513.94;5095680;28;20444;-84
2023/12/25 05:35:41;;;;;;;4.75;3.60;;;;;;;11.72;100.00;100519.25;5060961;28;20050;-85
2023/12/25 05:38:06;;;;;;;4.90;3.97;;;;;;;11.61;100.00;100497.19;5077464;28;20393;-84
2023/12/25 05:40:31;;;;;;;4.28;3.60;;;;;;;11.67;100.00;100522.78;5077074;28;20085;-86
2023/12/25 05:42:57;;;;;;;4.93;4.05;;;;;;;11.64;100.00;100526.28;5095179;28;20119;-85
2023/12/25 05:45:23;;;;;;;5.10;3.85;;;;;;;11.64;100.00;100522.78;5076928;28;20473;-85
2023/12/25 05:47:48;;;;;;;5.50;3.97;;;;;;;11.53;100.00;100509.53;5077004;28;20131;-85
2023/12/25 05:50:14;;;;;;;6.45;4.60;;;;;;;11.51;100.00;100498.06;5095122;28;20060;-84
2023/12/25 05:52:40;;;;;;;5.65;4.43;;;;;;;11.63;100.00;100516.59;5095031;28;20060;-85
2023/12/25 05:55:06;;;;;;;4.78;4.03;;;;;;;11.65;100.00;100513.94;5094858;28;20040;-84
2023/12/25 05:57:32;;;;;;;6.53;4.32;;;;;;;11.64;100.00;100515.72;5076639;28;20087;-84
2023/12/25 05:59:57;;;;;;;4.88;4.22;;;;;;;11.64;100.00;100512.19;5094751;28;20132;-85
2023/12/25 06:02:22;;;;;;;6.13;4.30;;;;;;;11.52;100.00;100494.56;5094823;28;20119;-85
2023/12/25 06:04:48;;;;;;;4.55;4.00;;;;;;;11.62;100.00;100522.78;5076543;28;20506;-85
2023/12/25 06:07:13;;;;;;;6.82;4.00;;;;;;;11.56;100.00;100520.09;5076760;28;20028;-84
2023/12/25 06:09:39;;;;;;;4.82;4.30;;;;;;;11.58;100.00;100521.00;5094844;28;20028;-84
2023/12/25 06:12:05;;;;;;;4.60;4.03;;;;;;;11.63;100.00;100521.88;5094733;28;20028;-85
2023/12/25 06:14:30;;;;;;;4.53;3.85;;;;;;;11.58;100.00;100513.06;5094469;28;20460;-85
2023/12/25 06:16:56;;;;;;;6.75;3.90;;;;;;;11.53;100.00;100512.19;5094528;28;20457;-85
2023/12/25 06:19:21;;;;;;;5.40;3.92;;;;;;;11.52;100.00;100519.25;5076442;28;20070;-85
2023/12/25 06:21:47;;;;;;;7.20;3.58;;;;;;;11.57;100.00;100523.66;5076585;28;20064;-84
2023/12/25 06:24:12;;;;;;;5.18;3.50;;;;;;;11.53;100.00;100513.06;5059448;28;20043;-84
2023/12/25 06:26:37;;;;;;;4.00;3.20;;;;;;;11.53;100.00;100507.78;5094584;28;20086;-85
2023/12/25 06:29:03;;;;;;;5.93;3.70;;;;;;;11.55;100.00;100499.81;5076197;28;20043;-85
2023/12/25 06:31:28;;;;;;;3.97;3.42;;;;;;;11.56;100.00;100498.06;5094261;28;20082;-84
2023/12/25 06:33:54;;;;;;;3.72;3.08;;;;;;;11.59;100.00;100506.88;5093950;28;20032;-86
2023/12/25 06:36:19;;;;;;;3.50;3.10;;;;;;;11.62;100.00;100517.47;5076444;28;20468;-86
2023/12/25 06:38:45;;;;;;;4.20;3.10;;;;;;;11.56;100.00;100506.88;5094499;28;20027;-86
2023/12/25 06:41:13;;;;;;;3.72;3.00;;;;;;;11.66;100.00;100521.91;5094373;28;20426;-84
2023/12/25 06:43:39;;;;;;;4.10;3.15;;;;;;;11.64;100.00;100522.78;5075816;28;20380;-85
2023/12/25 06:46:04;;;;;;;4.70;2.80;;;;;;;11.61;100.00;100515.72;5093971;28;20479;-84
2023/12/25 06:48:29;;;;;;;3.58;2.95;;;;;;;11.66;100.00;100523.66;5075597;28;20084;-85
2023/12/25 06:50:55;;;;;;;3.90;3.10;;;;;;;11.48;100.00;100491.00;5093601;28;20031;-86
2023/12/25 06:53:21;;;;;;;3.40;3.03;;;;;;;11.59;100.00;100512.19;5093641;28;20530;-86
2023/12/25 06:55:46;;;;;;;4.43;3.35;;;;;;;11.59;100.00;100522.75;5093797;28;20040;-86
2023/12/25 06:58:12;;;;;;;5.05;3.63;;;;;;;11.64;100.00;100546.59;5093779;28;20054;-85
2023/12/25 07:00:37;;;;;;;3.78;3.25;;;;;;;11.64;100.00;100543.94;5075640;28;20036;-85
2023/12/25 07:03:03;;;;;;;3.92;3.53;;;;;;;11.49;100.00;100513.94;5093295;28;20146;-85
2023/12/25 07:05:28;;;;;;;4.32;3.67;;;;;;;11.58;100.00;100536.00;5075553;28;20081;-86
2023/12/25 07:07:54;;;;;;;4.20;3.60;;;;;;;11.53;100.00;100534.22;5093211;28;20063;-86
2023/12/25 07:10:19;;;;;;;4.68;3.67;;;;;;;11.57;100.00;100537.78;5093320;28;20107;-85
2023/12/25 07:12:45;;;;;;;5.05;4.25;;;;;;;11.60;100.00;100545.69;5093506;28;20451;-85
2023/12/25 07:15:10;;;;;;;5.82;3.92;;;;;;;11.57;100.00;100552.78;5093821;28;20032;-86
2023/12/25 07:17:35;;;;;;;5.20;4.40;;;;;;;11.60;100.00;100563.34;5093504;28;20354;-85
2023/12/25 07:20:01;;;;;;;4.65;4.15;;;;;;;11.58;100.00;100573.06;5075386;28;20040;-86
2023/12/25 07:22:29;;;;;;;5.25;4.70;;;;;;;11.53;100.00;100557.16;5093367;28;20064;-85
2023/12/25 07:24:54;;;;;;;6.28;5.55;;;;;;;11.47;100.00;100549.19;5093137;28;20469;-86
2023/12/25 07:27:19;;;;;;;5.25;4.75;;;;;;;11.61;100.00;100587.19;5092912;28;20039;-86
2023/12/25 07:29:47;;;;;;;4.00;3.58;;;;;;;11.53;100.00;100586.28;5092942;28;20036;-86
2023/12/25 07:32:12;;;;;;;1.80;1.70;;;;;;;11.45;100.00;100596.84;5075285;28;20028;-86
2023/12/25 07:34:38;;;;;;;1.60;1.40;;;;;;;11.14;100.00;100557.94;5075354;28;20111;-86
2023/12/25 07:37:03;;;;;;;3.13;1.60;;;;;;;11.24;100.00;100584.41;5093757;28;20067;-87
2023/12/25 07:39:29;;;;;;;1.20;1.10;;;;;;;10.92;100.00;100549.00;5093855;28;20036;-87
2023/12/25 07:41:55;;;;;;;1.30;1.20;;;;;;;11.08;100.00;100590.50;5093819;28;20037;-87
2023/12/25 07:44:21;;;;;;;1.05;0.95;;;;;;;10.98;100.00;100589.59;5075813;28;20393;-88
2023/12/25 07:46:47;;;;;;;1.50;1.40;;;;;;;10.88;100.00;100574.56;5059118;28;20135;-87
2023/12/25 07:49:12;;;;;;;2.17;1.60;;;;;;;10.89;100.00;100584.25;5094053;28;20071;-87
2023/12/25 07:51:38;;;;;;;1.27;1.17;;;;;;;10.89;100.00;100591.31;5094227;28;20036;-87
2023/12/25 07:54:03;;;;;;;1.17;1.08;;;;;;;10.84;100.00;100585.13;5075841;28;20487;-86
2023/12/25 07:56:28;;;;;;;3.33;1.92;;;;;;;10.93;100.00;100611.59;5076159;28;20560;-87
2023/12/25 07:58:54;;;;;;;4.18;3.17;;;;;;;10.91;100.00;100614.22;5093695;28;20035;-87
2023/12/25 08:01:22;;;;;;;2.78;2.10;;;;;;;10.82;100.00;100608.00;5094397;28;20028;-86
2023/12/25 08:03:49;;;;;;;2.88;1.90;;;;;;;10.78;100.00;100605.31;5059478;28;20056;-86
2023/12/25 08:06:14;;;;;;;2.20;1.90;;;;;;;10.89;100.00;100628.31;5093460;28;20111;-86
2023/12/25 08:08:39;;;;;;;2.72;1.65;;;;;;;10.86;100.00;100628.28;5074832;28;20117;-87
2023/12/25 08:11:05;;;;;;;1.70;1.60;;;;;;;10.83;100.00;100633.53;5074871;28;20028;-87
2023/12/25 08:13:30;;;;;;;1.60;1.50;;;;;;;10.76;100.00;100632.63;5093222;28;20487;-88
2023/12/25 08:15:55;;;;;;;2.22;1.40;;;;;;;10.76;100.00;100636.16;5075521;28;20111;-88
2023/12/25 08:18:21;;;;;;;1.52;1.42;;;;;;;10.65;100.00;100629.91;5075008;28;20036;-88
2023/12/25 08:20:46;;;;;;;1.50;1.40;;;;;;;10.73;100.00;100645.81;5074993;28;20495;-88
2023/12/25 08:23:11;;;;;;;0.90;0.90;;;;;;;10.56;100.00;100624.56;5092688;28;20129;-87
2023/12/25 08:25:38;;;;;;;2.63;1.20;;;;;;;10.58;100.00;100621.94;5075481;28;20055;-86
2023/12/25 08:28:04;;;;;;;2.47;1.40;;;;;;;10.69;100.00;100658.13;5074926;28;20468;-88
2023/12/25 08:30:29;;;;;;;0.80;0.80;;;;;;;10.68;100.00;100656.38;5074503;28;20174;-88
2023/12/25 08:32:54;;;;;;;1.20;1.15;;;;;;;10.57;100.00;100636.00;5074538;28;20035;-88
2023/12/25 08:35:20;;;;;;;0.95;0.90;;;;;;;10.70;100.00;100662.53;5074550;28;20380;-90
2023/12/25 08:37:45;;;;;;;1.10;0.98;;;;;;;10.66;100.00;100652.84;5061078;28;20057;-87
2023/12/25 08:40:11;;;;;;;1.35;1.20;;;;;;;10.65;100.00;100645.75;5077874;28;20047;-87
2023/12/25 08:42:36;;;;;;;1.20;1.10;;;;;;;10.66;100.00;100646.66;5077404;28;20040;-87
2023/12/25 08:45:02;;;;;;;1.60;1.40;;;;;;;10.70;100.00;100651.09;5061106;28;20093;-86
2023/12/25 08:47:28;;;;;;;1.80;1.55;;;;;;;10.64;100.00;100641.38;5061123;28;20447;-86
2023/12/25 08:49:53;;;;;;;2.63;1.63;;;;;;;10.68;100.00;100664.28;5097921;28;20044;-86
2023/12/25 08:52:20;;;;;;;2.92;1.90;;;;;;;10.63;100.00;100659.84;5060744;28;20127;-85
2023/12/25 08:54:45;;;;;;;2.50;2.00;;;;;;;10.72;100.00;100670.50;5078420;28;20047;-86
2023/12/25 08:57:11;;;;;;;2.33;1.80;;;;;;;10.78;100.00;100673.16;5096306;28;20107;-86
2023/12/25 08:59:36;;;;;;;3.33;1.70;;;;;;;10.80;100.00;100670.56;5078191;28;20035;-87
2023/12/25 09:02:02;;;;;;;3.47;2.20;;;;;;;10.81;100.00;100675.84;5077921;28;20031;-86
2023/12/25 09:04:28;;;;;;;2.97;2.03;;;;;;;10.80;100.00;100652.06;5095831;28;20142;-86
2023/12/25 09:06:53;;;;;;;3.03;2.10;;;;;;;10.83;100.00;100654.69;5076962;28;20068;-87
2023/12/25 09:09:19;;;;;;;1.40;1.30;;;;;;;10.83;100.00;100645.00;5077444;28;20464;-87
2023/12/25 09:11:46;;;;;;;4.15;1.60;;;;;;;10.83;100.00;100652.06;5077538;28;20097;-87
2023/12/25 09:14:12;;;;;;;2.45;1.98;;;;;;;10.78;100.00;100649.38;5077674;28;20115;-87
2023/12/25 09:16:37;;;;;;;1.75;1.60;;;;;;;10.84;100.00;100665.28;5077461;28;20063;-86
2023/12/25 09:19:03;;;;;;;1.75;1.60;;;;;;;10.80;100.00;100652.06;5077163;28;20404;-86
2023/12/25 09:21:29;;;;;;;2.10;1.90;;;;;;;10.91;100.00;100680.31;5095138;28;20127;-87
2023/12/25 09:23:54;;;;;;;3.15;2.70;;;;;;;10.91;100.00;100685.59;5095176;28;20028;-86
2023/12/25 09:26:20;;;;;;;3.70;3.03;;;;;;;10.91;100.00;100687.34;5077493;28;20039;-86
2023/12/25 09:28:46;;;;;;;4.25;3.38;;;;;;;10.85;100.00;100676.75;5095029;28;20081;-87
2023/12/25 09:31:13;;;;;;;5.05;4.13;;;;;;;10.72;100.00;100666.09;5094606;28;20055;-86
2023/12/25 09:33:39;;;;;;;4.47;3.17;;;;;;;10.97;100.00;100740.28;5076893;28;20051;-86
2023/12/25 09:36:08;;;;;;;6.05;3.72;;;;;;;10.89;100.00;100726.13;5076336;28;20028;-86
2023/12/25 09:38:34;;;;;;;27.45;14.20;;;;;;;10.94;100.00;100740.25;5076600;28;20413;-87
2023/12/25 09:41:00;;;;;;;23.67;13.68;;;;;;;10.84;100.00;100719.94;5076720;28;20028;-88
2023/12/25 09:43:27;;;;;;;3.22;2.35;;;;;;;10.87;100.00;100734.03;5077040;28;20036;-88
2023/12/25 09:45:57;;;;;;;2.88;2.40;;;;;;;10.91;100.00;100742.88;5095901;28;20040;-87
2023/12/25 09:48:25;;;;;;;3.47;1.98;;;;;;;10.81;100.00;100725.19;5077264;28;20101;-87
2023/12/25 09:50:50;;;;;;;2.08;1.88;;;;;;;10.94;100.00;100730.56;5060607;28;20065;-87
2023/12/25 09:53:16;;;;;;;2.75;2.10;;;;;;;10.96;100.00;100728.84;5076261;28;20058;-87
2023/12/25 09:55:43;;;;;;;2.88;2.20;;;;;;;10.95;100.00;100710.28;5077196;28;20051;-86
2023/12/25 09:58:14;;;;;;;2.30;1.77;;;;;;;10.91;100.00;100698.81;5076342;28;20107;-85
2023/12/25 10:00:40;;;;;;;2.17;1.65;;;;;;;10.98;100.00;100720.91;5076349;28;20455;-85
2023/12/25 10:03:06;;;;;;;1.70;1.60;;;;;;;10.96;100.00;100710.31;5075683;28;20075;-84
2023/12/25 10:05:31;;;;;;;2.28;2.03;;;;;;;10.90;100.00;100707.63;5076278;28;20483;-86
2023/12/25 10:07:57;;;;;;;1.80;1.70;;;;;;;10.92;100.00;100718.19;5094572;28;20040;-86
2023/12/25 10:10:31;;;;;;;1.98;1.50;;;;;;;10.89;100.00;100721.72;5076290;28;20067;-85
2023/12/25 10:12:59;;;;;;;2.65;1.60;;;;;;;10.86;100.00;100710.22;5094073;28;20036;-86
2023/12/25 10:15:25;;;;;;;1.45;1.25;;;;;;;10.91;100.00;100725.25;5076742;28;20028;-85
2023/12/25 10:18:03;;;;;;;1.30;1.20;;;;;;;10.90;100.00;100727.88;5076292;28;20114;-85
2023/12/25 10:20:29;;;;;;;3.42;1.50;;;;;;;10.85;100.00;100724.34;5094037;28;20467;-86
2023/12/25 10:22:55;;;;;;;3.13;2.10;;;;;;;10.78;100.00;100716.34;5094082;28;20085;-87
2023/12/25 10:25:25;;;;;;;1.63;1.35;;;;;;;10.80;100.00;100724.28;5061519;28;20032;-85
2023/12/25 10:27:50;;;;;;;3.95;2.17;;;;;;;10.74;100.00;100719.81;5075715;28;20038;-85
2023/12/25 10:30:24;;;;;;;1.45;1.30;;;;;;;10.72;100.00;100718.94;5075566;28;20028;-85
2023/12/25 10:33:09;;;;;;;1.60;1.30;;;;;;;10.71;100.00;100701.31;5075928;28;20349;-85
2023/12/25 10:35:34;;;;;;;1.58;1.30;;;;;;;10.73;100.00;100706.63;5093998;28;20047;-85
2023/12/25 10:38:04;;;;;;;1.77;1.40;;;;;;;10.70;100.00;100711.84;5058986;28;20036;-85
2023/12/25 10:40:31;;;;;;;2.00;1.20;;;;;;;10.68;100.00;100716.25;5075244;28;20032;-85
2023/12/25 10:42:57;;;;;;;1.40;1.30;;;;;;;10.78;100.00;100740.13;5075906;28;20123;-85
2023/12/25 10:45:30;;;;;;;1.60;1.30;;;;;;;10.75;100.00;100732.19;5058689;28;20165;-85
2023/12/25 10:47:58;;;;;;;1.40;1.30;;;;;;;10.71;100.00;100726.88;5058916;28;20040;-85
2023/12/25 10:50:26;;;;;;;1.85;1.35;;;;;;;10.62;100.00;100719.75;5093550;28;20115;-84
2023/12/25 10:52:52;;;;;;;2.38;1.23;;;;;;;10.66;100.00;100736.50;5093030;28;20044;-85
2023/12/25 10:55:42;;;;;;;4.22;1.70;;;;;;;10.67;100.00;100733.88;5058521;28;20040;-86
2023/12/25 10:58:13;;;;;;;3.08;1.40;;;;;;;10.54;100.00;100713.50;5062513;28;20040;-85
2023/12/25 11:00:51;;;;;;;1.85;1.30;;;;;;;10.63;100.00;100733.84;5092442;28;20043;-84
2023/12/25 11:03:17;;;;;;;1.65;1.40;;;;;;;10.64;100.00;100728.56;5093009;28;20052;-85
2023/12/25 11:05:43;;;;;;;2.80;1.60;;;;;;;10.64;100.00;100730.31;5075070;28;20032;-85
2023/12/25 11:08:08;;;;;;;4.43;1.50;;;;;;;10.67;100.00;100736.53;5058105;28;20028;-85
2023/12/25 11:10:35;;;;;;;2.15;1.60;;;;;;;10.63;100.00;100728.56;5075176;28;20032;-85